メインページ
METAR-TAF:

METAR-TAF

空港 :

新居大島, 日本

大島空港

緯度: 34-47N, 経度: 139-22E, 海抜: 38m

現時点の気象観測

当レポートは57分前の23:00(UTC)に作成
変向風 2kt
気温 20°C
湿度 83%
気圧 1015 hPa
視程10km以上
高度1400ftの雲はほとんどない
千切れ雲あり

METAR: RJTO 282300Z VRB02KT 9999 FEW014 BKN/// 20/17 Q1015

時間: 08:57 (23:57 UTC)


TAF: 見つかりません

4,000以上の空港の気象観測と天気予報(METAR報とTAF報)

利用可能な観測所は地図上に黄色い丸と赤い丸で示す。

丸の上にカーソルを重ねると観測所名を参照できる。

次にクリックすると気象観測と天気予報を参照できる。

マップの切り替え:黒色「×」印の緑ボタンをクリックして拡大、「-」印の緑ボタンをクリックして縮小、緑色の三角印をクリックして隣りの地図に切り替え


METAR-TAF: